createdAt,value
2022-10-02T00:01:32.006Z,18135.47
2022-10-02T00:04:02.380Z,18139.53
2022-10-02T00:06:41.764Z,18147.66
2022-10-02T00:09:21.587Z,18151.72
2022-10-02T00:11:54.962Z,18157.81
2022-10-02T00:14:26.306Z,18117.19
2022-10-02T00:17:01.048Z,18096.88
2022-10-02T00:19:29.288Z,18121.25
2022-10-02T00:22:31.274Z,18121.25
2022-10-02T00:25:09.950Z,18123.28
2022-10-02T00:28:07.961Z,18123.28
2022-10-02T00:31:00.583Z,18137.50
2022-10-02T00:33:48.038Z,18137.50
2022-10-02T00:36:37.215Z,18157.81
2022-10-02T00:39:26.253Z,18107.03
2022-10-02T00:42:46.095Z,18119.22
2022-10-02T00:45:53.427Z,18109.06
2022-10-02T00:48:55.773Z,18100.94
2022-10-02T00:51:55.554Z,18143.59
2022-10-02T00:54:56.283Z,18111.09
2022-10-02T00:57:46.292Z,18127.34
2022-10-02T01:00:18.372Z,18111.09
2022-10-02T01:03:06.866Z,18102.97
2022-10-02T01:05:36.617Z,18088.75
2022-10-02T01:08:05.907Z,18109.06
2022-10-02T01:10:35.347Z,18086.72
2022-10-02T01:13:03.684Z,18090.78
2022-10-02T01:15:37.094Z,18086.72
2022-10-02T01:18:05.710Z,18086.72
2022-10-02T01:20:41.653Z,18084.69
2022-10-02T01:23:27.515Z,18078.59
2022-10-02T01:25:57.494Z,18080.63
2022-10-02T01:28:26.087Z,18082.66
2022-10-02T01:31:02.467Z,18078.59
2022-10-02T01:33:31.631Z,18072.50
2022-10-02T01:36:00.118Z,18094.84
2022-10-02T01:38:29.384Z,18121.25
2022-10-02T01:40:58.884Z,18117.19
2022-10-02T01:43:32.948Z,18127.34
2022-10-02T01:46:21.818Z,18123.28
2022-10-02T01:49:09.830Z,18145.63
2022-10-02T01:52:09.644Z,18147.66
2022-10-02T01:54:52.974Z,18133.44
2022-10-02T01:57:40.079Z,18151.72
2022-10-02T02:00:13.962Z,18137.50
2022-10-02T02:02:57.843Z,18163.91
2022-10-02T02:05:46.104Z,18194.38
2022-10-02T02:08:28.662Z,18167.97
2022-10-02T02:11:11.473Z,18180.16
2022-10-02T02:13:49.199Z,18220.78
2022-10-02T02:16:26.833Z,18208.59
2022-10-02T02:19:04.126Z,18198.44
2022-10-02T02:21:37.098Z,18180.16
2022-10-02T02:24:12.483Z,18204.53
2022-10-02T02:26:43.723Z,18180.16
2022-10-02T02:29:18.046Z,18167.97
2022-10-02T02:31:53.409Z,18165.94
2022-10-02T02:34:30.263Z,18151.72
2022-10-02T02:37:07.891Z,18161.88
2022-10-02T02:39:43.637Z,18123.28
2022-10-02T02:42:17.963Z,18111.09
2022-10-02T02:44:56.833Z,18127.34
2022-10-02T02:47:32.032Z,18133.44
2022-10-02T02:50:06.221Z,18129.38
2022-10-02T02:52:42.918Z,18115.16
2022-10-02T02:55:18.266Z,18111.09
2022-10-02T02:57:55.169Z,18098.91
2022-10-02T03:00:26.267Z,18098.91
2022-10-02T03:02:55.630Z,18127.34
2022-10-02T03:05:26.012Z,18121.25
2022-10-02T03:07:57.993Z,18107.03
2022-10-02T03:10:47.944Z,18105.00
2022-10-02T03:13:40.384Z,18107.03
2022-10-02T03:16:27.296Z,18078.59
2022-10-02T03:19:16.860Z,18113.13
2022-10-02T03:22:05.198Z,18066.41
2022-10-02T03:24:45.471Z,18088.75
2022-10-02T03:27:21.695Z,18131.41
2022-10-02T03:30:00.605Z,18100.94
2022-10-02T03:32:33.382Z,18111.09
2022-10-02T03:35:03.986Z,18080.63
2022-10-02T03:37:33.472Z,18127.34
2022-10-02T03:40:04.279Z,18107.03
2022-10-02T03:42:36.105Z,18096.88
2022-10-02T03:45:04.585Z,18105.00
2022-10-02T03:47:33.986Z,18090.78
2022-10-02T03:50:01.968Z,18123.28
2022-10-02T03:52:35.715Z,18161.88
2022-10-02T03:55:14.462Z,18157.81
2022-10-02T03:57:47.457Z,18170.00
2022-10-02T04:00:23.393Z,18190.31
2022-10-02T04:02:59.975Z,18230.94
2022-10-02T04:05:34.888Z,18202.50
2022-10-02T04:08:11.844Z,18241.13
2022-10-02T04:10:50.643Z,18261.44
2022-10-02T04:13:29.983Z,18253.31
2022-10-02T04:16:09.735Z,18265.50
2022-10-02T04:18:49.391Z,18241.13
2022-10-02T04:21:32.228Z,18196.41
2022-10-02T04:24:14.001Z,18263.47
2022-10-02T04:26:52.496Z,18208.59
2022-10-02T04:29:28.093Z,18218.75
2022-10-02T04:32:12.215Z,18196.41
2022-10-02T04:34:42.472Z,18167.97
2022-10-02T04:37:44.053Z,18163.91
2022-10-02T04:40:31.015Z,18180.16
2022-10-02T04:43:16.317Z,18151.72
2022-10-02T04:46:08.646Z,18115.16
2022-10-02T04:49:18.406Z,18184.22
2022-10-02T04:52:06.483Z,18174.06
2022-10-02T04:55:16.263Z,18139.53
2022-10-02T04:58:01.648Z,18125.31
2022-10-02T05:00:38.262Z,18100.94
2022-10-02T05:03:35.370Z,18100.94
2022-10-02T05:06:26.330Z,18082.66
2022-10-02T05:09:12.639Z,18094.84
2022-10-02T05:12:03.758Z,18068.44
2022-10-02T05:15:03.898Z,18082.66
2022-10-02T05:17:53.077Z,18070.47
2022-10-02T05:20:56.796Z,18096.88
2022-10-02T05:23:44.107Z,18105.00
2022-10-02T05:26:42.542Z,18074.53
2022-10-02T05:29:32.232Z,18082.66
2022-10-02T05:32:25.553Z,18048.13
2022-10-02T05:35:14.340Z,18029.84
2022-10-02T05:37:58.227Z,18096.88
2022-10-02T05:40:34.946Z,18013.59
2022-10-02T05:43:12.548Z,18068.44
2022-10-02T05:45:47.702Z,18058.28
2022-10-02T05:48:21.959Z,18025.78
2022-10-02T05:50:56.069Z,18107.03
2022-10-02T05:53:36.153Z,18109.06
2022-10-02T05:56:13.091Z,18082.66
2022-10-02T05:58:51.393Z,18068.44
2022-10-02T06:01:28.785Z,18086.72
2022-10-02T06:04:04.467Z,18119.22
2022-10-02T06:06:40.337Z,18151.72
2022-10-02T06:09:20.047Z,18172.03
2022-10-02T06:11:57.042Z,18159.84
2022-10-02T06:14:35.309Z,18159.84
2022-10-02T06:17:12.426Z,18208.59
2022-10-02T06:19:49.260Z,18206.56
2022-10-02T06:22:22.123Z,18218.75
2022-10-02T06:24:58.254Z,18243.16
2022-10-02T06:27:36.924Z,18247.22
2022-10-02T06:30:10.952Z,18265.50
2022-10-02T06:32:49.535Z,18346.75
2022-10-02T06:35:35.442Z,18322.38
2022-10-02T06:38:22.746Z,18391.44
2022-10-02T06:41:03.483Z,18456.47
2022-10-02T06:44:03.360Z,18446.31
2022-10-02T06:46:52.367Z,18474.75
2022-10-02T06:49:39.369Z,18484.91
2022-10-02T06:52:24.756Z,18505.22
2022-10-02T06:55:23.208Z,18570.22
2022-10-02T06:58:45.319Z,18641.34
2022-10-02T07:01:29.909Z,18787.63
2022-10-02T07:04:33.106Z,18927.84
2022-10-02T07:07:22.887Z,19019.28
2022-10-02T07:10:30.387Z,18980.66
2022-10-02T07:13:26.956Z,18903.44
2022-10-02T07:16:22.959Z,18885.16
2022-10-02T07:19:19.873Z,18862.81
2022-10-02T07:22:00.705Z,18832.34
2022-10-02T07:24:53.074Z,18830.31
2022-10-02T07:27:27.173Z,18913.59
2022-10-02T07:30:04.153Z,18996.91
2022-10-02T07:32:48.757Z,19202.16
2022-10-02T07:35:46.554Z,19362.69
2022-10-02T07:38:46.001Z,19450.06
2022-10-02T07:41:59.881Z,19553.72
2022-10-02T07:44:54.166Z,19543.53
2022-10-02T07:47:47.164Z,19476.47
2022-10-02T07:50:32.222Z,19401.28
2022-10-02T07:53:12.270Z,19352.53
2022-10-02T07:55:44.456Z,19305.78
2022-10-02T07:58:19.354Z,19202.16
2022-10-02T08:00:54.035Z,19035.53
2022-10-02T08:03:28.865Z,18960.34
2022-10-02T08:06:00.485Z,18921.75
2022-10-02T08:08:38.650Z,18905.47
2022-10-02T08:11:15.444Z,18944.09
2022-10-02T08:13:50.348Z,18899.38
2022-10-02T08:16:23.314Z,18925.81
2022-10-02T08:18:59.854Z,18903.44
2022-10-02T08:21:39.863Z,18923.78
2022-10-02T08:24:16.345Z,18976.59
2022-10-02T08:26:54.639Z,18996.91
2022-10-02T08:29:29.905Z,18956.28
2022-10-02T08:31:58.128Z,18976.59
2022-10-02T08:34:26.791Z,19005.03
2022-10-02T08:37:18.376Z,19000.97
2022-10-02T08:40:36.634Z,19033.50
2022-10-02T08:43:51.304Z,19029.44
2022-10-02T08:47:03.265Z,19098.50
2022-10-02T08:50:14.877Z,19088.34
2022-10-02T08:53:57.169Z,19066.00
2022-10-02T08:57:03.702Z,19035.53
2022-10-02T09:00:09.315Z,19039.59
2022-10-02T09:03:36.738Z,19029.44
2022-10-02T09:06:58.587Z,19102.56
2022-10-02T09:10:45.930Z,19171.66
2022-10-02T09:14:10.014Z,19287.50
2022-10-02T09:17:02.365Z,19287.50
2022-10-02T09:19:49.363Z,19305.78
2022-10-02T09:23:14.426Z,19338.28
2022-10-02T09:25:58.582Z,19450.06
2022-10-02T09:29:30.519Z,19486.66
2022-10-02T09:32:59.617Z,19578.09
2022-10-02T09:36:30.085Z,19665.47
2022-10-02T09:39:46.161Z,19671.56
2022-10-02T09:43:17.353Z,19628.91
2022-10-02T09:46:43.067Z,19502.91
2022-10-02T09:49:57.358Z,19458.19
2022-10-02T09:53:20.804Z,19586.22
2022-10-02T09:56:34.733Z,19563.88
2022-10-02T09:59:48.316Z,19557.78
2022-10-02T10:03:17.974Z,19604.50
2022-10-02T10:06:27.718Z,19598.41
2022-10-02T10:09:36.387Z,19541.50
2022-10-02T10:12:42.820Z,19385.03
2022-10-02T10:16:29.768Z,19360.66
2022-10-02T10:19:49.816Z,19261.06
2022-10-02T10:23:07.463Z,19350.50
2022-10-02T10:26:28.596Z,19330.16
2022-10-02T10:29:38.905Z,19435.84
2022-10-02T10:33:07.030Z,19525.25
2022-10-02T10:36:56.165Z,19561.84
2022-10-02T10:40:14.287Z,19553.72
2022-10-02T10:43:19.946Z,19667.50
2022-10-02T10:46:25.465Z,19635.00
2022-10-02T10:49:30.577Z,19657.34
2022-10-02T10:52:15.116Z,19651.25
2022-10-02T10:55:12.391Z,19647.19
2022-10-02T10:58:01.109Z,19620.78
2022-10-02T11:00:45.774Z,19687.84
2022-10-02T11:04:02.131Z,19649.22
2022-10-02T11:07:09.013Z,19752.88
2022-10-02T11:10:20.083Z,19779.28
2022-10-02T11:13:05.688Z,19884.97
2022-10-02T11:16:14.879Z,19931.72
2022-10-02T11:19:29.310Z,19972.38
2022-10-02T11:22:26.908Z,19909.34
2022-10-02T11:25:57.534Z,20065.84
2022-10-02T11:29:00.129Z,20090.25
2022-10-02T11:31:54.655Z,20132.94
2022-10-02T11:34:58.204Z,20122.78
2022-10-02T11:38:03.997Z,20112.59
2022-10-02T11:41:04.150Z,20071.97
2022-10-02T11:44:04.783Z,20139.03
2022-10-02T11:47:13.771Z,20202.03
2022-10-02T11:50:41.557Z,20252.84
2022-10-02T11:53:36.149Z,20307.72
2022-10-02T11:56:35.561Z,20236.59
2022-10-02T11:59:27.336Z,20246.75
2022-10-02T12:02:04.932Z,20250.81
2022-10-02T12:04:54.398Z,20181.72
2022-10-02T12:07:38.260Z,20120.75
2022-10-02T12:10:39.504Z,20037.41
2022-10-02T12:13:40.279Z,20149.19
2022-10-02T12:16:22.251Z,20291.47
2022-10-02T12:19:11.310Z,20370.75
2022-10-02T12:22:21.720Z,20403.25
2022-10-02T12:25:21.817Z,20405.31
2022-10-02T12:28:13.210Z,20437.81
2022-10-02T12:30:50.744Z,20403.25
2022-10-02T12:33:34.541Z,20439.84
2022-10-02T12:36:42.514Z,20405.31
2022-10-02T12:39:38.624Z,20435.78
2022-10-02T12:43:00.174Z,20445.94
2022-10-02T12:46:10.240Z,20445.94
2022-10-02T12:49:01.880Z,20458.16
2022-10-02T12:52:00.016Z,20338.22
2022-10-02T12:55:17.865Z,20301.63
2022-10-02T12:58:06.024Z,20195.94
2022-10-02T13:01:04.014Z,20242.69
2022-10-02T13:04:10.837Z,20193.91
2022-10-02T13:07:51.019Z,20134.97
2022-10-02T13:10:25.226Z,20228.47
2022-10-02T13:13:17.188Z,20289.44
2022-10-02T13:15:58.400Z,20496.78
2022-10-02T13:18:55.335Z,20484.56
2022-10-02T13:21:39.521Z,20482.53
2022-10-02T13:24:35.792Z,20521.16
2022-10-02T13:27:20.809Z,20565.88
2022-10-02T13:30:07.292Z,20547.59
2022-10-02T13:33:05.882Z,20494.75
2022-10-02T13:36:05.078Z,20423.59
2022-10-02T13:38:57.901Z,20311.78
2022-10-02T13:41:42.346Z,20260.97
2022-10-02T13:44:26.945Z,20234.56
2022-10-02T13:47:38.708Z,20189.84
2022-10-02T13:50:22.719Z,20193.91
2022-10-02T13:53:19.764Z,20175.63
2022-10-02T13:55:58.191Z,20122.78
2022-10-02T13:58:58.582Z,20128.88
2022-10-02T14:01:41.689Z,20063.81
2022-10-02T14:04:32.824Z,20008.94
2022-10-02T14:07:18.505Z,19988.63
2022-10-02T14:10:03.029Z,19923.59
2022-10-02T14:12:47.909Z,19935.78
2022-10-02T14:15:38.530Z,19925.63
2022-10-02T14:18:49.822Z,19903.25
2022-10-02T14:21:31.962Z,19880.91
2022-10-02T14:24:45.920Z,19891.06
2022-10-02T14:27:45.275Z,19874.81
2022-10-02T14:30:19.897Z,19911.41
2022-10-02T14:33:05.153Z,19962.19
2022-10-02T14:35:45.287Z,20010.97
2022-10-02T14:38:44.012Z,20045.53
2022-10-02T14:41:48.584Z,20013.00
2022-10-02T14:45:01.262Z,20004.88
2022-10-02T14:47:51.108Z,19972.38
2022-10-02T14:50:41.745Z,19976.44
2022-10-02T14:53:54.547Z,19996.75
2022-10-02T14:56:55.247Z,19952.03
2022-10-02T15:00:17.520Z,19931.72
2022-10-02T15:03:18.947Z,19895.13
2022-10-02T15:06:19.025Z,19911.41
2022-10-02T15:08:55.759Z,19966.28
2022-10-02T15:11:52.821Z,19986.59
2022-10-02T15:14:29.622Z,20008.94
2022-10-02T15:17:20.706Z,19891.06
2022-10-02T15:19:56.181Z,19866.69
2022-10-02T15:22:31.663Z,19895.13
2022-10-02T15:25:18.321Z,19785.38
2022-10-02T15:28:08.007Z,19728.47
2022-10-02T15:30:58.084Z,19602.47
2022-10-02T15:33:38.543Z,19437.88
2022-10-02T15:36:45.052Z,19378.94
2022-10-02T15:39:55.709Z,19311.88
2022-10-02T15:42:50.044Z,19265.13
2022-10-02T15:45:50.962Z,19220.44
2022-10-02T15:48:59.697Z,19169.63
2022-10-02T15:51:47.311Z,19167.59
2022-10-02T15:54:32.088Z,19153.38
2022-10-02T15:57:35.508Z,19120.88
2022-10-02T16:00:14.627Z,19131.03
2022-10-02T16:03:16.848Z,19106.66
2022-10-02T16:05:53.331Z,19063.97
2022-10-02T16:08:54.678Z,19086.31
2022-10-02T16:12:00.217Z,19055.84
2022-10-02T16:14:45.651Z,19035.53
2022-10-02T16:17:53.579Z,18976.59
2022-10-02T16:20:47.412Z,18980.66
2022-10-02T16:23:43.986Z,18962.38
2022-10-02T16:26:35.383Z,18927.84
2022-10-02T16:29:28.237Z,18885.16
2022-10-02T16:32:19.472Z,18915.63
2022-10-02T16:35:17.080Z,18909.53
2022-10-02T16:37:47.747Z,18875.00
2022-10-02T16:40:27.809Z,18854.69
2022-10-02T16:43:37.979Z,18862.81
2022-10-02T16:46:11.899Z,18836.41
2022-10-02T16:48:53.229Z,18830.31
2022-10-02T16:51:50.499Z,18803.88
2022-10-02T16:54:34.760Z,18785.59
2022-10-02T16:57:15.499Z,18738.88
2022-10-02T16:59:51.679Z,18730.75
2022-10-02T17:02:28.688Z,18724.66
2022-10-02T17:05:13.980Z,18700.25
2022-10-02T17:07:57.261Z,18677.91
2022-10-02T17:10:50.314Z,18661.66
2022-10-02T17:13:30.475Z,18651.50
2022-10-02T17:16:09.036Z,18596.66
2022-10-02T17:18:46.862Z,18564.13
2022-10-02T17:21:24.591Z,18531.63
2022-10-02T17:24:23.588Z,18486.94
2022-10-02T17:27:01.771Z,18501.16
2022-10-02T17:29:40.437Z,18476.78
2022-10-02T17:32:10.598Z,18493.03
2022-10-02T17:34:50.188Z,18460.53
2022-10-02T17:38:07.430Z,18423.94
2022-10-02T17:40:47.716Z,18411.75
2022-10-02T17:43:31.012Z,18356.91
2022-10-02T17:46:28.542Z,18381.28
2022-10-02T17:49:07.946Z,18371.13
2022-10-02T17:51:53.226Z,18326.44
2022-10-02T17:55:09.481Z,18350.81
2022-10-02T17:57:58.946Z,18346.75
2022-10-02T18:00:27.793Z,18322.38
2022-10-02T18:03:26.337Z,18320.34
2022-10-02T18:06:16.494Z,18314.25
2022-10-02T18:09:18.052Z,18318.31
2022-10-02T18:12:28.127Z,18320.34
2022-10-02T18:15:27.084Z,18287.84
2022-10-02T18:18:24.103Z,18298.00
2022-10-02T18:21:09.120Z,18281.75
2022-10-02T18:24:08.786Z,18267.53
2022-10-02T18:27:08.751Z,18281.75
2022-10-02T18:30:08.733Z,18241.13
2022-10-02T18:33:10.342Z,18257.38
2022-10-02T18:35:57.320Z,18222.81
2022-10-02T18:38:31.796Z,18257.38
2022-10-02T18:41:23.124Z,18249.25
2022-10-02T18:44:16.890Z,18222.81
2022-10-02T18:47:02.601Z,18216.72
2022-10-02T18:49:52.668Z,18206.56
2022-10-02T18:53:06.386Z,18180.16
2022-10-02T18:56:05.696Z,18212.66
2022-10-02T18:59:02.701Z,18216.72
2022-10-02T19:01:53.585Z,18247.22
2022-10-02T19:04:48.565Z,18224.84
2022-10-02T19:07:22.135Z,18239.09
2022-10-02T19:10:21.257Z,18241.13
2022-10-02T19:12:57.104Z,18265.50
2022-10-02T19:15:30.644Z,18293.94
2022-10-02T19:18:03.417Z,18259.41
2022-10-02T19:20:51.481Z,18279.72
2022-10-02T19:23:31.545Z,18261.44
2022-10-02T19:26:06.959Z,18306.13
2022-10-02T19:28:46.509Z,18354.88
2022-10-02T19:31:22.674Z,18300.03
2022-10-02T19:33:59.005Z,18342.69
2022-10-02T19:36:30.684Z,18271.59
2022-10-02T19:39:04.115Z,18318.31
2022-10-02T19:41:40.810Z,18310.19
2022-10-02T19:44:22.164Z,18269.56
2022-10-02T19:46:53.875Z,18332.53
2022-10-02T19:49:30.149Z,18289.88
2022-10-02T19:51:59.000Z,18273.63
2022-10-02T19:54:36.516Z,18302.06
2022-10-02T19:57:12.946Z,18257.38
2022-10-02T19:59:47.786Z,18226.88
2022-10-02T20:02:25.999Z,18232.97
2022-10-02T20:05:02.679Z,18230.94
2022-10-02T20:07:35.495Z,18214.69
2022-10-02T20:10:12.816Z,18222.81
2022-10-02T20:12:49.784Z,18216.72
2022-10-02T20:15:38.954Z,18210.63
2022-10-02T20:18:08.055Z,18186.25
2022-10-02T20:20:40.251Z,18153.75
2022-10-02T20:23:18.100Z,18165.94
2022-10-02T20:25:53.730Z,18167.97
2022-10-02T20:28:32.466Z,18167.97
2022-10-02T20:31:07.081Z,18115.16
2022-10-02T20:33:41.408Z,18139.53
2022-10-02T20:36:18.338Z,18127.34
2022-10-02T20:38:53.080Z,18109.06
2022-10-02T20:41:27.324Z,18135.47
2022-10-02T20:44:04.469Z,18141.56
2022-10-02T20:47:10.209Z,18163.91
2022-10-02T20:50:22.854Z,18163.91
2022-10-02T20:53:57.237Z,18139.53
2022-10-02T20:57:04.829Z,18096.88
2022-10-02T21:00:15.603Z,18105.00
2022-10-02T21:03:18.467Z,18137.50
2022-10-02T21:06:38.717Z,18070.47
2022-10-02T21:10:02.242Z,18119.22
2022-10-02T21:13:17.514Z,18113.13
2022-10-02T21:16:37.950Z,18058.28
2022-10-02T21:19:42.520Z,18096.88
2022-10-02T21:22:57.336Z,18115.16
2022-10-02T21:26:26.703Z,18105.00
2022-10-02T21:29:37.159Z,18084.69
2022-10-02T21:32:36.375Z,18050.16
2022-10-02T21:35:16.687Z,18064.38
2022-10-02T21:38:07.361Z,18084.69
2022-10-02T21:41:44.172Z,18054.22
2022-10-02T21:45:06.015Z,18046.09
2022-10-02T21:48:39.620Z,18046.09
2022-10-02T21:52:03.903Z,18074.53
2022-10-02T21:55:14.471Z,18037.97
2022-10-02T21:58:42.721Z,18035.94
2022-10-02T22:02:07.846Z,18056.25
2022-10-02T22:05:19.352Z,18035.94
2022-10-02T22:08:03.527Z,18023.75
2022-10-02T22:10:49.254Z,18015.63
2022-10-02T22:13:28.079Z,18021.72
2022-10-02T22:16:22.999Z,18013.59
2022-10-02T22:19:00.253Z,17997.34
2022-10-02T22:22:07.416Z,17985.16
2022-10-02T22:25:03.908Z,17999.38
2022-10-02T22:27:57.542Z,17970.94
2022-10-02T22:30:30.912Z,17993.28
2022-10-02T22:33:43.969Z,18013.59
2022-10-02T22:36:45.263Z,17987.19
2022-10-02T22:39:23.531Z,17995.31
2022-10-02T22:41:59.678Z,18033.91
2022-10-02T22:44:35.910Z,17968.91
2022-10-02T22:47:13.279Z,17977.03
2022-10-02T22:49:50.610Z,18033.91
2022-10-02T22:52:25.692Z,17985.16
2022-10-02T22:55:01.862Z,18042.03
2022-10-02T22:57:43.061Z,18005.47
2022-10-02T23:00:19.767Z,18005.47
2022-10-02T23:02:59.745Z,18009.53
2022-10-02T23:05:40.371Z,18013.59
2022-10-02T23:08:22.925Z,18009.53
2022-10-02T23:11:01.059Z,18009.53
2022-10-02T23:13:37.181Z,17989.22
2022-10-02T23:16:15.278Z,18011.56
2022-10-02T23:18:54.244Z,17995.31
2022-10-02T23:21:45.642Z,18005.47
2022-10-02T23:24:29.286Z,17997.34
2022-10-02T23:27:12.616Z,18005.47
2022-10-02T23:29:53.383Z,17991.25
2022-10-02T23:32:31.593Z,17972.97
2022-10-02T23:35:13.791Z,18005.47
2022-10-02T23:37:53.935Z,17991.25
2022-10-02T23:40:44.945Z,17968.91
2022-10-02T23:43:21.943Z,17979.06
2022-10-02T23:46:02.323Z,17993.28
2022-10-02T23:48:32.809Z,17985.16
2022-10-02T23:51:16.353Z,17993.28
2022-10-02T23:54:29.225Z,17948.59
2022-10-02T23:57:21.077Z,17936.41
